Time;durP1;ratioP1;P1;durP2;ratioP2;P2;SDS_P1;SDS_P2;PMS_P1;PMS_P2;Temp;Humidity;BMP_temperature;BMP_pressure;BME280_temperature;BME280_humidity;BME280_pressure;Samples;Min_cycle;Max_cycle;Signal;HPM_P1;HPM_P2
2021/01/02 00:05:17;;;;;;;35.40;18.97;;;4.30;91.50;;;;;;6036214;23;20051;-86
2021/01/02 00:08:05;;;;;;;30.93;18.27;;;4.30;91.70;;;;;;6011940;23;20439;-86
2021/01/02 00:10:37;;;;;;;31.43;18.83;;;4.30;91.70;;;;;;6044384;23;20007;-86
2021/01/02 00:13:24;;;;;;;32.13;18.40;;;4.30;91.70;;;;;;6225108;22;20014;-86
2021/01/02 00:15:58;;;;;;;31.87;19.60;;;4.30;91.70;;;;;;6275774;22;20003;-86
2021/01/02 00:18:51;;;;;;;35.80;19.40;;;4.30;91.60;;;;;;6248744;22;20003;-86
2021/01/02 00:21:27;;;;;;;39.17;19.47;;;4.30;91.40;;;;;;6275485;22;20004;-87
2021/01/02 00:24:26;;;;;;;32.40;19.10;;;4.30;91.70;;;;;;6249103;22;20437;-86
2021/01/02 00:27:25;;;;;;;31.77;18.25;;;4.30;91.50;;;;;;6248497;22;20069;-86
2021/01/02 00:30:06;;;;;;;29.05;17.58;;;4.30;91.30;;;;;;6275290;22;20445;-86
2021/01/02 00:33:10;;;;;;;31.60;19.03;;;4.30;91.30;;;;;;6248355;22;20000;-87
2021/01/02 00:35:37;;;;;;;33.07;18.27;;;4.30;91.30;;;;;;6275534;22;20329;-87
2021/01/02 00:38:06;;;;;;;29.87;17.50;;;4.30;91.10;;;;;;6275452;22;20445;-87
2021/01/02 00:40:36;;;;;;;32.00;17.85;;;4.20;91.10;;;;;;6274612;22;20007;-87
2021/01/02 00:43:03;;;;;;;33.00;17.93;;;4.30;91.10;;;;;;6248085;22;20011;-87
2021/01/02 00:45:31;;;;;;;31.90;18.80;;;4.30;91.00;;;;;;6248108;22;20011;-86
2021/01/02 00:47:57;;;;;;;35.03;18.77;;;4.30;91.00;;;;;;6248296;22;20431;-86
2021/01/02 00:50:25;;;;;;;33.97;18.60;;;4.30;90.90;;;;;;6247991;22;20000;-86
2021/01/02 00:52:50;;;;;;;32.57;19.10;;;4.30;90.80;;;;;;6248257;22;20357;-86
2021/01/02 00:55:25;;;;;;;32.93;18.50;;;4.30;90.70;;;;;;6275463;22;20061;-86
2021/01/02 00:58:26;;;;;;;30.97;17.50;;;4.30;90.60;;;;;;6248335;22;20007;-86
2021/01/02 01:01:02;;;;;;;30.73;17.30;;;4.30;90.40;;;;;;6274932;22;19999;-86
2021/01/02 01:03:34;;;;;;;30.37;17.20;;;4.30;90.40;;;;;;6248079;22;20011;-87
2021/01/02 01:06:03;;;;;;;33.20;18.73;;;4.30;90.40;;;;;;6248140;22;20031;-86
2021/01/02 01:08:32;;;;;;;31.52;18.48;;;4.20;90.50;;;;;;6275258;22;20000;-86
2021/01/02 01:11:02;;;;;;;30.65;17.40;;;4.20;90.30;;;;;;6247716;22;20004;-86
2021/01/02 01:13:28;;;;;;;32.60;18.40;;;4.20;90.30;;;;;;6248434;22;20007;-86
2021/01/02 01:15:56;;;;;;;33.47;18.20;;;4.20;90.30;;;;;;6248132;22;20000;-86
2021/01/02 01:18:44;;;;;;;31.30;18.00;;;4.20;90.30;;;;;;6275704;22;20004;-86
2021/01/02 01:21:15;;;;;;;32.25;18.05;;;4.10;90.30;;;;;;6247716;22;20012;-86
2021/01/02 01:23:51;;;;;;;31.90;18.30;;;4.20;90.20;;;;;;6275537;22;20008;-86
2021/01/02 01:26:34;;;;;;;33.87;18.13;;;4.10;90.10;;;;;;6275315;22;20049;-86
2021/01/02 01:29:01;;;;;;;29.77;18.13;;;4.10;90.30;;;;;;6247737;22;20002;-86
2021/01/02 01:31:44;;;;;;;31.40;18.10;;;4.10;90.20;;;;;;6248521;22;20011;-86
2021/01/02 01:34:21;;;;;;;33.13;18.63;;;4.20;90.60;;;;;;6248305;22;20004;-86
2021/01/02 01:36:49;;;;;;;35.37;19.10;;;4.20;90.10;;;;;;6275300;22;20003;-86
2021/01/02 01:39:15;;;;;;;30.30;18.60;;;4.10;90.00;;;;;;6247963;22;20039;-86
2021/01/02 01:41:44;;;;;;;34.80;18.97;;;4.20;90.20;;;;;;6247979;22;20008;-87
2021/01/02 01:44:10;;;;;;;30.33;18.67;;;4.20;90.10;;;;;;6275243;22;20003;-86
2021/01/02 01:46:52;;;;;;;34.80;19.90;;;4.10;90.10;;;;;;6279163;22;20334;-87
2021/01/02 01:49:30;;;;;;;34.90;19.50;;;4.20;90.20;;;;;;6252448;22;20039;-87
2021/01/02 01:52:05;;;;;;;34.60;19.10;;;4.10;90.20;;;;;;6280701;22;19995;-86
2021/01/02 01:54:52;;;;;;;36.40;19.40;;;4.10;90.20;;;;;;6253612;22;20020;-87
2021/01/02 01:57:26;;;;;;;35.40;18.90;;;4.10;89.80;;;;;;6277647;22;19996;-86
2021/01/02 01:59:58;;;;;;;31.00;18.37;;;4.10;90.10;;;;;;6248446;22;20427;-86
2021/01/02 02:02:45;;;;;;;30.87;18.23;;;4.10;90.20;;;;;;6275262;22;20078;-86
2021/01/02 02:05:13;;;;;;;32.03;18.23;;;4.10;90.10;;;;;;6275072;22;20024;-86
2021/01/02 02:07:44;;;;;;;29.33;17.70;;;4.10;90.20;;;;;;6248946;22;20000;-86
2021/01/02 02:10:14;;;;;;;32.60;18.93;;;4.10;90.20;;;;;;6276856;22;20461;-86
2021/01/02 02:12:51;;;;;;;28.13;17.30;;;4.10;90.20;;;;;;6277013;22;19996;-87
2021/01/02 02:15:20;;;;;;;29.20;15.90;;;4.10;90.40;;;;;;6250097;22;20032;-86
2021/01/02 02:17:47;;;;;;;;;;;4.10;90.10;;;;;;6250738;22;20007;-87
2021/01/02 02:20:28;;;;;;;28.43;16.63;;;4.10;90.20;;;;;;6276364;22;19957;-87
2021/01/02 02:23:06;;;;;;;29.93;17.00;;;4.10;90.20;;;;;;6250090;22;20003;-87
2021/01/02 02:26:00;;;;;;;30.33;17.00;;;4.10;90.40;;;;;;6249815;22;20423;-87
2021/01/02 02:28:35;;;;;;;26.37;15.83;;;4.10;90.00;;;;;;6236391;22;20315;-87
2021/01/02 02:31:07;;;;;;;25.73;15.40;;;4.20;90.00;;;;;;6249275;22;20346;-86
2021/01/02 02:33:35;;;;;;;26.17;14.93;;;4.10;89.60;;;;;;6251141;22;20006;-87
2021/01/02 02:36:03;;;;;;;25.73;14.33;;;4.10;89.70;;;;;;6251543;22;20042;-86
2021/01/02 02:38:37;;;;;;;24.93;13.87;;;4.10;89.60;;;;;;6251264;22;20026;-87
2021/01/02 02:41:09;;;;;;;22.93;13.17;;;4.10;89.70;;;;;;6250214;22;20009;-87
2021/01/02 02:43:38;;;;;;;21.17;12.77;;;4.10;89.10;;;;;;6251276;22;20003;-87
2021/01/02 02:46:04;;;;;;;23.52;12.82;;;4.10;89.20;;;;;;6277884;22;20003;-86
2021/01/02 02:48:30;;;;;;;19.20;11.57;;;4.20;89.30;;;;;;6251155;22;19999;-87
2021/01/02 02:50:57;;;;;;;20.93;11.67;;;4.10;88.80;;;;;;6277642;22;20373;-87
2021/01/02 02:53:22;;;;;;;22.13;12.47;;;4.10;89.20;;;;;;6251148;22;20338;-86
2021/01/02 02:55:48;;;;;;;21.80;12.50;;;4.10;89.40;;;;;;6250339;22;20004;-87
2021/01/02 02:58:14;;;;;;;22.97;13.20;;;4.10;89.70;;;;;;6276576;22;20006;-86
2021/01/02 03:00:40;;;;;;;22.43;12.67;;;4.10;89.60;;;;;;6275860;22;20004;-87
2021/01/02 03:03:10;;;;;;;21.10;13.07;;;4.10;90.00;;;;;;6249629;22;20010;-87
2021/01/02 03:05:38;;;;;;;24.77;13.00;;;4.20;90.10;;;;;;6249499;22;20296;-86
2021/01/02 03:08:06;;;;;;;21.83;12.03;;;4.20;90.10;;;;;;6276398;22;20003;-87
2021/01/02 03:10:32;;;;;;;23.47;12.87;;;4.20;89.60;;;;;;6276523;22;20003;-86
2021/01/02 03:12:58;;;;;;;22.07;11.67;;;4.20;90.00;;;;;;6249174;22;20077;-86
2021/01/02 03:15:26;;;;;;;20.80;12.37;;;4.20;89.90;;;;;;6276331;22;20445;-86
2021/01/02 03:17:55;;;;;;;27.47;13.20;;;4.20;90.00;;;;;;6249135;22;20042;-86
2021/01/02 03:20:21;;;;;;;26.05;12.43;;;4.10;90.20;;;;;;6248094;22;20046;-87
2021/01/02 03:22:48;;;;;;;19.83;12.23;;;4.20;90.10;;;;;;6249354;22;20003;-87
2021/01/02 03:25:15;;;;;;;21.17;12.57;;;4.20;90.20;;;;;;6249234;22;20422;-87
2021/01/02 03:27:42;;;;;;;23.60;13.07;;;4.20;90.10;;;;;;6249254;22;20027;-87
2021/01/02 03:30:09;;;;;;;21.30;12.10;;;4.20;90.20;;;;;;6248659;22;20003;-87
2021/01/02 03:32:35;;;;;;;22.10;12.37;;;4.20;90.30;;;;;;6249101;22;20000;-86
2021/01/02 03:35:05;;;;;;;22.20;12.43;;;4.20;90.20;;;;;;6249587;22;20006;-87
2021/01/02 03:37:32;;;;;;;21.53;12.40;;;4.20;90.50;;;;;;6276449;22;20000;-86
2021/01/02 03:39:58;;;;;;;21.90;12.83;;;4.20;90.20;;;;;;6275470;22;20000;-87
2021/01/02 03:42:23;;;;;;;21.67;12.03;;;4.20;90.10;;;;;;6248975;22;20000;-87
2021/01/02 03:44:49;;;;;;;23.73;12.63;;;4.10;90.10;;;;;;6276319;22;20032;-86
2021/01/02 03:47:15;;;;;;;22.20;12.27;;;4.10;90.00;;;;;;6249056;22;20006;-87
2021/01/02 03:49:40;;;;;;;25.03;13.23;;;4.10;90.10;;;;;;6247476;22;20019;-87
2021/01/02 03:52:07;;;;;;;22.20;12.97;;;4.10;90.00;;;;;;6274820;22;20134;-87
2021/01/02 03:54:34;;;;;;;19.10;12.37;;;4.10;89.80;;;;;;6249110;22;19999;-87
2021/01/02 03:57:00;;;;;;;19.63;12.10;;;4.10;89.60;;;;;;6249022;22;20442;-86
2021/01/02 03:59:25;;;;;;;22.80;12.07;;;4.10;89.30;;;;;;6275606;22;20000;-86
2021/01/02 04:01:52;;;;;;;23.57;12.90;;;4.10;89.80;;;;;;6248582;22;20077;-87
2021/01/02 04:04:17;;;;;;;24.17;13.27;;;4.10;89.30;;;;;;6248724;22;20014;-87
2021/01/02 04:06:43;;;;;;;22.33;13.17;;;4.10;89.30;;;;;;6248803;22;20008;-87
2021/01/02 04:09:09;;;;;;;26.97;13.67;;;4.10;88.80;;;;;;6248192;22;20430;-87
2021/01/02 04:11:42;;;;;;;25.47;13.77;;;4.00;88.80;;;;;;6275542;22;20000;-87
2021/01/02 04:14:08;;;;;;;22.17;13.23;;;3.90;88.70;;;;;;6248485;22;20007;-88
2021/01/02 04:16:34;;;;;;;24.50;13.80;;;3.90;88.60;;;;;;6248728;22;20012;-86
2021/01/02 04:19:00;;;;;;;23.43;13.40;;;4.00;89.10;;;;;;6248022;22;20342;-87
2021/01/02 04:21:26;;;;;;;26.63;14.37;;;4.00;88.90;;;;;;6248631;22;20022;-86
2021/01/02 04:23:51;;;;;;;23.53;13.67;;;3.90;88.60;;;;;;6275756;22;20043;-86
2021/01/02 04:26:19;;;;;;;25.93;13.47;;;4.00;89.20;;;;;;6248529;22;20007;-86
2021/01/02 04:28:44;;;;;;;25.70;13.87;;;4.00;89.20;;;;;;6275722;22;20007;-86
2021/01/02 04:31:10;;;;;;;26.90;14.30;;;4.00;88.70;;;;;;6248492;22;20415;-87
2021/01/02 04:33:35;;;;;;;25.50;14.17;;;3.90;88.60;;;;;;6248825;22;20000;-87
2021/01/02 04:36:01;;;;;;;26.53;14.27;;;4.00;88.80;;;;;;6248541;22;20061;-86
2021/01/02 04:38:27;;;;;;;27.43;14.03;;;4.00;88.70;;;;;;6248477;22;20458;-86
2021/01/02 04:40:56;;;;;;;24.00;13.77;;;4.00;88.20;;;;;;6274831;22;20087;-86
2021/01/02 04:43:23;;;;;;;26.13;14.47;;;3.90;88.10;;;;;;6248378;22;20042;-86
2021/01/02 04:45:50;;;;;;;24.50;14.30;;;4.00;89.00;;;;;;6275508;22;20086;-86
2021/01/02 04:48:16;;;;;;;26.73;14.43;;;3.90;88.60;;;;;;6275482;22;20004;-86
2021/01/02 04:50:41;;;;;;;24.43;13.97;;;3.90;88.20;;;;;;6247982;22;20004;-86
2021/01/02 04:53:08;;;;;;;24.63;13.87;;;4.00;88.30;;;;;;6248345;22;20061;-86
2021/01/02 04:55:39;;;;;;;28.53;15.47;;;3.90;88.10;;;;;;6248446;22;20057;-86
2021/01/02 04:58:07;;;;;;;25.80;14.77;;;3.90;88.00;;;;;;6248503;22;20010;-87
2021/01/02 05:00:37;;;;;;;26.80;15.63;;;4.00;88.10;;;;;;6248278;22;20042;-86
2021/01/02 05:03:03;;;;;;;28.10;14.90;;;3.90;88.30;;;;;;6275715;22;20078;-86
2021/01/02 05:05:29;;;;;;;26.87;15.30;;;3.90;88.10;;;;;;6248268;22;20338;-87
2021/01/02 05:07:54;;;;;;;27.90;15.90;;;3.90;87.50;;;;;;6248421;22;20004;-86
2021/01/02 05:10:20;;;;;;;26.47;14.47;;;3.90;88.70;;;;;;6247709;22;20035;-86
2021/01/02 05:12:46;;;;;;;28.27;14.73;;;3.90;88.10;;;;;;6248294;22;20010;-86
2021/01/02 05:15:13;;;;;;;28.63;15.03;;;3.90;88.20;;;;;;6248288;22;20027;-86
2021/01/02 05:17:40;;;;;;;27.33;15.20;;;3.90;87.90;;;;;;6248220;22;20000;-86
2021/01/02 05:20:11;;;;;;;28.30;16.53;;;3.90;88.80;;;;;;6245654;22;20038;-81
2021/01/02 05:22:38;;;;;;;27.80;15.53;;;3.90;88.20;;;;;;6246107;23;20004;-81
2021/01/02 05:25:09;;;;;;;26.53;15.67;;;4.00;88.70;;;;;;6245654;23;20320;-80
2021/01/02 05:27:36;;;;;;;30.27;16.33;;;4.00;88.20;;;;;;6245670;23;19996;-80
2021/01/02 05:30:26;;;;;;;29.17;15.87;;;4.00;88.00;;;;;;6216804;23;20027;-81
2021/01/02 05:33:08;;;;;;;30.03;16.67;;;4.00;87.70;;;;;;6215244;23;20439;-81
2021/01/02 05:35:39;;;;;;;29.43;15.80;;;4.00;87.50;;;;;;6215526;23;20005;-81
2021/01/02 05:38:09;;;;;;;28.63;16.10;;;4.00;88.40;;;;;;6188918;23;20004;-81
2021/01/02 05:40:46;;;;;;;30.43;16.63;;;4.00;87.80;;;;;;6214988;23;20364;-81
2021/01/02 05:43:14;;;;;;;30.60;17.13;;;3.90;87.50;;;;;;6189871;23;20084;-80
2021/01/02 05:45:40;;;;;;;31.90;16.30;;;3.90;87.80;;;;;;6190562;23;20012;-81
2021/01/02 05:48:20;;;;;;;30.57;17.10;;;3.90;88.10;;;;;;6217145;23;20021;-80
2021/01/02 05:50:54;;;;;;;33.17;16.80;;;4.00;88.00;;;;;;6216909;23;20020;-81
2021/01/02 05:53:30;;;;;;;30.07;16.90;;;4.00;87.80;;;;;;6217205;23;20004;-81
2021/01/02 05:56:14;;;;;;;28.13;16.27;;;3.90;87.50;;;;;;6217486;23;19997;-81
2021/01/02 05:58:44;;;;;;;28.50;16.60;;;3.90;87.80;;;;;;6217180;23;20080;-81
2021/01/02 06:01:15;;;;;;;29.87;17.17;;;3.90;87.30;;;;;;6216552;23;20004;-80
2021/01/02 06:03:42;;;;;;;29.37;16.33;;;3.90;87.80;;;;;;6217721;23;20374;-81
2021/01/02 06:06:13;;;;;;;33.63;17.63;;;3.90;87.90;;;;;;6217460;23;20009;-80
2021/01/02 06:08:46;;;;;;;32.40;17.27;;;3.90;87.20;;;;;;6217222;23;20527;-81
2021/01/02 06:11:17;;;;;;;31.37;17.23;;;3.90;87.10;;;;;;6216236;23;20001;-81
2021/01/02 06:13:47;;;;;;;31.83;18.63;;;4.00;87.50;;;;;;6215663;23;19997;-82
2021/01/02 06:16:13;;;;;;;33.10;17.77;;;3.90;87.50;;;;;;6217795;23;20000;-81
2021/01/02 06:18:41;;;;;;;32.80;17.60;;;4.00;88.10;;;;;;6217494;23;20015;-81
2021/01/02 06:21:18;;;;;;;32.40;17.23;;;4.00;87.20;;;;;;6190114;23;20040;-80
2021/01/02 06:23:45;;;;;;;32.97;17.70;;;3.90;87.40;;;;;;6191522;23;20012;-81
2021/01/02 06:26:13;;;;;;;33.30;17.13;;;3.90;87.50;;;;;;6218469;23;20008;-81
2021/01/02 06:28:41;;;;;;;34.93;17.47;;;3.90;87.70;;;;;;6191750;23;20087;-81
2021/01/02 06:31:13;;;;;;;33.73;17.70;;;4.00;88.20;;;;;;6217418;23;20335;-82
2021/01/02 06:33:46;;;;;;;32.40;17.63;;;4.00;87.50;;;;;;6218565;23;20032;-81
2021/01/02 06:36:37;;;;;;;32.37;18.07;;;3.90;87.10;;;;;;6191829;23;20012;-81
2021/01/02 06:39:28;;;;;;;30.93;17.33;;;3.90;87.10;;;;;;6218023;23;20079;-81
2021/01/02 06:41:56;;;;;;;37.77;18.50;;;3.90;87.30;;;;;;6191841;23;20008;-81
2021/01/02 06:44:41;;;;;;;38.63;18.77;;;3.90;87.10;;;;;;6219077;23;20011;-81
2021/01/02 06:47:14;;;;;;;35.17;18.10;;;3.80;87.30;;;;;;6218387;23;20081;-82
2021/01/02 06:49:40;;;;;;;32.77;17.93;;;3.90;87.30;;;;;;6191630;23;20446;-81
2021/01/02 06:52:06;;;;;;;36.17;18.70;;;3.90;87.20;;;;;;6218689;23;20001;-81
2021/01/02 06:54:32;;;;;;;36.17;17.63;;;3.90;87.10;;;;;;6218744;23;20004;-82
2021/01/02 06:57:02;;;;;;;39.93;19.40;;;3.90;87.40;;;;;;6218779;23;20012;-82
2021/01/02 06:59:27;;;;;;;33.33;18.00;;;4.00;87.10;;;;;;6191592;23;20012;-82
2021/01/02 07:01:53;;;;;;;36.37;18.90;;;3.90;86.80;;;;;;6218303;23;20008;-81
2021/01/02 07:04:36;;;;;;;36.53;18.53;;;4.00;87.20;;;;;;6217109;23;20324;-81
2021/01/02 07:07:06;;;;;;;36.23;17.83;;;3.90;86.80;;;;;;6216204;23;20000;-80
2021/01/02 07:09:32;;;;;;;37.65;18.73;;;3.90;87.00;;;;;;6189121;23;19996;-80
2021/01/02 07:12:09;;;;;;;36.27;18.10;;;3.90;87.20;;;;;;6216448;23;20118;-80
2021/01/02 07:14:35;;;;;;;34.37;18.53;;;3.90;87.20;;;;;;6216661;23;20075;-81
2021/01/02 07:17:06;;;;;;;34.90;19.20;;;3.90;87.20;;;;;;6216164;23;20004;-80
2021/01/02 07:19:47;;;;;;;40.80;20.20;;;3.90;87.40;;;;;;6215596;23;20000;-81
2021/01/02 07:22:21;;;;;;;36.37;17.90;;;3.90;87.20;;;;;;6215888;23;20013;-81
2021/01/02 07:24:47;;;;;;;38.40;19.60;;;3.90;87.10;;;;;;6216383;23;20004;-81
2021/01/02 07:27:25;;;;;;;39.17;18.80;;;3.90;87.00;;;;;;6189478;23;20103;-81
2021/01/02 07:29:53;;;;;;;37.10;18.87;;;3.90;87.00;;;;;;6216608;23;20495;-81
2021/01/02 07:32:29;;;;;;;37.07;19.33;;;3.90;87.30;;;;;;6217839;23;20001;-81
2021/01/02 07:35:06;;;;;;;37.57;19.03;;;3.90;87.10;;;;;;6217537;23;20001;-81
2021/01/02 07:37:38;;;;;;;37.40;19.43;;;3.80;87.50;;;;;;6216173;23;20005;-81
2021/01/02 07:40:08;;;;;;;40.20;19.70;;;3.80;87.50;;;;;;6215881;23;20005;-81
2021/01/02 07:42:51;;;;;;;38.20;20.77;;;3.80;87.30;;;;;;6189072;23;20004;-80
2021/01/02 07:45:20;;;;;;;38.80;19.03;;;3.80;87.50;;;;;;6216050;23;20031;-81
2021/01/02 07:47:46;;;;;;;37.27;20.17;;;3.80;87.60;;;;;;6216487;23;20005;-81
2021/01/02 07:50:15;;;;;;;37.23;19.00;;;3.80;87.50;;;;;;6215686;23;20001;-82
2021/01/02 07:52:55;;;;;;;39.37;19.87;;;3.80;87.20;;;;;;6214633;23;20382;-81
2021/01/02 07:55:26;;;;;;;39.27;19.03;;;3.80;87.30;;;;;;6216077;23;19997;-81
2021/01/02 07:57:52;;;;;;;33.63;18.50;;;3.80;87.30;;;;;;6215949;23;20032;-81
2021/01/02 08:00:19;;;;;;;38.90;19.67;;;3.80;87.80;;;;;;6215052;23;20020;-80
2021/01/02 08:02:45;;;;;;;40.33;18.87;;;3.90;87.20;;;;;;6215703;23;20320;-81
2021/01/02 08:05:13;;;;;;;40.00;20.23;;;3.90;86.90;;;;;;6215431;23;20016;-81
2021/01/02 08:07:39;;;;;;;37.67;19.03;;;3.90;87.10;;;;;;6214236;23;20012;-81
2021/01/02 08:10:09;;;;;;;37.03;18.23;;;3.80;87.00;;;;;;6214896;23;20007;-81
2021/01/02 08:12:36;;;;;;;39.80;19.70;;;3.90;86.90;;;;;;6215830;23;20032;-81
2021/01/02 08:15:03;;;;;;;38.53;19.50;;;3.80;87.00;;;;;;6216027;23;20055;-81
2021/01/02 08:17:41;;;;;;;37.37;19.10;;;3.80;87.20;;;;;;6188938;23;20008;-80
2021/01/02 08:20:08;;;;;;;39.23;18.60;;;3.90;87.10;;;;;;6215313;23;20079;-81
2021/01/02 08:22:38;;;;;;;38.83;19.63;;;3.90;87.00;;;;;;6215670;23;20059;-81
2021/01/02 08:25:11;;;;;;;;;;;3.90;86.80;;;;;;6216508;23;20077;-81
2021/01/02 08:27:37;;;;;;;40.20;19.17;;;3.80;86.70;;;;;;6215915;23;19903;-81
2021/01/02 08:30:06;;;;;;;37.73;18.27;;;3.80;86.90;;;;;;6214808;23;20003;-81
2021/01/02 08:32:35;;;;;;;36.63;19.17;;;3.80;87.40;;;;;;6215778;23;19996;-81
2021/01/02 08:35:01;;;;;;;39.28;19.75;;;3.80;87.10;;;;;;6216492;23;20327;-81
2021/01/02 08:37:27;;;;;;;40.70;19.80;;;3.90;87.30;;;;;;6217098;23;20001;-82
2021/01/02 08:40:09;;;;;;;40.50;19.53;;;3.90;87.20;;;;;;6216627;23;20001;-83
2021/01/02 08:42:39;;;;;;;40.90;20.30;;;3.80;87.10;;;;;;6217332;23;20072;-82
2021/01/02 08:45:07;;;;;;;37.17;19.07;;;3.80;87.70;;;;;;6216955;23;20015;-83
2021/01/02 08:47:38;;;;;;;39.77;19.70;;;3.90;87.40;;;;;;6190389;23;20009;-82
2021/01/02 08:50:11;;;;;;;38.73;19.70;;;3.80;87.30;;;;;;6214564;23;19997;-82
2021/01/02 08:52:37;;;;;;;39.17;19.17;;;3.90;87.70;;;;;;6217584;23;19993;-82
2021/01/02 08:55:14;;;;;;;37.20;18.40;;;3.90;87.10;;;;;;6218277;23;19999;-82
2021/01/02 08:57:55;;;;;;;38.63;18.80;;;3.90;87.10;;;;;;6215522;23;20009;-82
2021/01/02 09:00:22;;;;;;;43.60;19.80;;;3.90;87.10;;;;;;6217005;23;20416;-81
2021/01/02 09:03:04;;;;;;;42.67;19.40;;;3.90;86.90;;;;;;6217927;23;20005;-83
2021/01/02 09:05:37;;;;;;;45.40;20.27;;;3.80;87.10;;;;;;6217571;23;20001;-82
2021/01/02 09:08:06;;;;;;;43.13;21.53;;;3.90;87.40;;;;;;6217408;23;20423;-82
2021/01/02 09:10:40;;;;;;;48.83;22.55;;;3.80;87.10;;;;;;6189684;23;20008;-82
2021/01/02 09:13:16;;;;;;;47.87;20.93;;;3.80;87.00;;;;;;6217689;23;20047;-82
2021/01/02 09:15:42;;;;;;;46.43;20.50;;;3.80;87.00;;;;;;6217288;23;20005;-83
2021/01/02 09:18:08;;;;;;;45.67;21.17;;;3.80;86.70;;;;;;6218178;23;20159;-82
2021/01/02 09:20:34;;;;;;;44.80;20.83;;;3.80;86.80;;;;;;6194297;23;20466;-82
2021/01/02 09:23:00;;;;;;;45.83;20.13;;;3.80;86.80;;;;;;6193393;23;20383;-82
2021/01/02 09:25:32;;;;;;;44.00;21.37;;;3.80;86.80;;;;;;6221196;23;20076;-83
2021/01/02 09:28:17;;;;;;;43.03;20.27;;;3.90;87.10;;;;;;6218821;23;20001;-82
2021/01/02 09:30:44;;;;;;;48.57;22.70;;;3.90;87.00;;;;;;6216349;23;20004;-82
2021/01/02 09:33:11;;;;;;;44.83;21.20;;;3.80;87.10;;;;;;6217442;23;20301;-82
2021/01/02 09:35:39;;;;;;;48.90;21.90;;;3.80;87.30;;;;;;6217070;23;20069;-82
2021/01/02 09:38:05;;;;;;;45.67;21.83;;;3.80;87.40;;;;;;6189936;23;20455;-82
2021/01/02 09:40:32;;;;;;;44.07;20.70;;;3.90;87.30;;;;;;6215867;23;20123;-83
2021/01/02 09:42:58;;;;;;;42.57;20.93;;;3.90;86.60;;;;;;6216999;23;20001;-83
2021/01/02 09:45:24;;;;;;;45.10;21.07;;;3.80;86.70;;;;;;6217367;23;20004;-82
2021/01/02 09:47:50;;;;;;;43.40;20.37;;;3.80;86.70;;;;;;6218926;23;20441;-83
2021/01/02 09:50:15;;;;;;;43.87;22.50;;;3.90;87.10;;;;;;6215306;23;20004;-83
2021/01/02 09:52:41;;;;;;;48.73;22.27;;;3.90;87.00;;;;;;6215822;23;20001;-82
2021/01/02 09:55:07;;;;;;;44.67;21.43;;;3.90;87.20;;;;;;6215868;23;20055;-82
2021/01/02 09:57:33;;;;;;;45.73;22.17;;;3.90;86.80;;;;;;6215045;23;20005;-83
2021/01/02 09:59:58;;;;;;;51.60;22.73;;;3.90;87.50;;;;;;6187922;23;20040;-82
2021/01/02 10:02:24;;;;;;;44.07;21.40;;;3.90;87.30;;;;;;6213965;23;20028;-83
2021/01/02 10:04:50;;;;;;;49.73;22.10;;;4.00;87.50;;;;;;6215789;23;20083;-82
2021/01/02 10:07:17;;;;;;;48.10;22.73;;;4.00;86.90;;;;;;6216054;23;20070;-82
2021/01/02 10:09:45;;;;;;;50.53;22.60;;;4.00;87.20;;;;;;6187917;23;20087;-83
2021/01/02 10:12:12;;;;;;;51.30;22.03;;;4.00;87.50;;;;;;6215696;23;20001;-83
2021/01/02 10:14:38;;;;;;;51.90;22.53;;;4.00;87.30;;;;;;6215322;23;20051;-82
2021/01/02 10:17:05;;;;;;;50.67;23.83;;;4.00;87.80;;;;;;6215758;23;20005;-82
2021/01/02 10:19:32;;;;;;;51.63;22.63;;;4.00;87.70;;;;;;6215026;23;20008;-82
2021/01/02 10:22:03;;;;;;;58.30;25.10;;;4.10;87.90;;;;;;6215499;23;20147;-82
2021/01/02 10:24:31;;;;;;;54.97;24.77;;;4.10;87.60;;;;;;6188793;23;20541;-83
2021/01/02 10:26:57;;;;;;;53.07;24.47;;;4.10;87.70;;;;;;6189155;23;20431;-83
2021/01/02 10:29:23;;;;;;;59.70;25.10;;;4.10;87.70;;;;;;6216762;23;20263;-83
2021/01/02 10:31:49;;;;;;;60.77;26.27;;;4.10;87.90;;;;;;6217605;23;20009;-82
2021/01/02 10:34:16;;;;;;;64.57;26.17;;;4.10;88.00;;;;;;6217966;23;20001;-82
2021/01/02 10:36:46;;;;;;;65.87;27.07;;;4.10;88.10;;;;;;6218202;23;20416;-82
2021/01/02 10:39:12;;;;;;;61.40;26.40;;;4.10;88.20;;;;;;6217149;23;20004;-83
2021/01/02 10:41:39;;;;;;;57.73;25.83;;;4.10;88.00;;;;;;6217893;23;20005;-83
2021/01/02 10:44:04;;;;;;;59.00;26.13;;;4.10;88.00;;;;;;6217625;23;20449;-82
2021/01/02 10:46:30;;;;;;;54.03;23.67;;;4.10;87.50;;;;;;6190594;23;20028;-83
2021/01/02 10:48:56;;;;;;;59.47;24.87;;;4.10;88.00;;;;;;6217102;23;20005;-82
2021/01/02 10:51:21;;;;;;;64.60;25.87;;;4.10;87.80;;;;;;6216359;23;20012;-83
2021/01/02 10:53:47;;;;;;;58.70;25.50;;;4.10;87.50;;;;;;6217930;23;20005;-83
2021/01/02 10:56:15;;;;;;;57.77;26.03;;;4.10;87.90;;;;;;6191229;23;20331;-82
2021/01/02 10:58:41;;;;;;;56.43;25.23;;;4.10;87.70;;;;;;6190982;23;20005;-82
2021/01/02 11:01:07;;;;;;;60.93;24.80;;;4.10;87.60;;;;;;6190407;23;20102;-82
2021/01/02 11:03:35;;;;;;;62.33;25.97;;;4.10;87.60;;;;;;6217970;23;20005;-83
2021/01/02 11:06:08;;;;;;;60.33;25.07;;;4.10;87.90;;;;;;6217996;23;20000;-82
2021/01/02 11:08:36;;;;;;;60.97;25.77;;;4.10;87.70;;;;;;6191116;23;19996;-82
2021/01/02 11:11:03;;;;;;;60.97;26.27;;;4.20;88.00;;;;;;6217273;23;20358;-83
2021/01/02 11:13:29;;;;;;;63.73;27.00;;;4.10;87.90;;;;;;6218073;23;20380;-82
2021/01/02 11:15:54;;;;;;;58.30;25.70;;;4.10;88.10;;;;;;6218124;23;20001;-83
2021/01/02 11:18:20;;;;;;;61.17;25.53;;;4.10;88.10;;;;;;6217801;23;20004;-83
2021/01/02 11:20:47;;;;;;;62.30;26.30;;;4.10;88.40;;;;;;6218529;23;20016;-82
2021/01/02 11:23:15;;;;;;;62.10;25.13;;;4.10;88.10;;;;;;6221353;23;20439;-82
2021/01/02 11:25:41;;;;;;;58.00;25.33;;;4.10;88.00;;;;;;6220916;23;20034;-82
2021/01/02 11:28:07;;;;;;;55.03;24.67;;;4.10;87.90;;;;;;6220642;23;20016;-82
2021/01/02 11:30:33;;;;;;;59.37;25.77;;;4.10;87.30;;;;;;6220861;23;20005;-83
2021/01/02 11:32:58;;;;;;;59.83;25.87;;;4.10;87.90;;;;;;6220736;23;20432;-82
2021/01/02 11:35:24;;;;;;;55.30;24.37;;;4.10;88.10;;;;;;6222200;23;20004;-83
2021/01/02 11:37:50;;;;;;;59.00;25.53;;;4.20;87.80;;;;;;6221816;23;20004;-83
2021/01/02 11:40:17;;;;;;;56.37;24.77;;;4.20;87.60;;;;;;6220934;23;20024;-82
2021/01/02 11:42:43;;;;;;;52.40;24.27;;;4.20;87.90;;;;;;6221786;23;20497;-83
2021/01/02 11:45:17;;;;;;;57.47;24.10;;;4.20;87.20;;;;;;6221460;23;20000;-82
2021/01/02 11:47:43;;;;;;;56.10;24.43;;;4.30;87.30;;;;;;6221502;23;20000;-83
2021/01/02 11:50:10;;;;;;;53.77;24.23;;;4.30;88.40;;;;;;6221243;23;20432;-83
2021/01/02 11:52:36;;;;;;;54.67;22.70;;;4.30;87.40;;;;;;6220789;23;20031;-83
2021/01/02 11:55:06;;;;;;;54.03;23.37;;;4.20;87.60;;;;;;6217006;23;20000;-83
2021/01/02 11:57:31;;;;;;;53.63;23.37;;;4.30;87.70;;;;;;6218500;23;20079;-82
2021/01/02 11:59:57;;;;;;;48.90;22.27;;;4.30;87.60;;;;;;6217901;23;20008;-82
2021/01/02 12:02:22;;;;;;;46.50;21.30;;;4.40;87.40;;;;;;6191531;23;20012;-82
2021/01/02 12:04:48;;;;;;;53.63;23.33;;;4.40;87.00;;;;;;6218359;23;20031;-82
2021/01/02 12:07:14;;;;;;;52.17;22.77;;;4.40;87.10;;;;;;6218484;23;20026;-82
2021/01/02 12:09:40;;;;;;;46.77;20.33;;;4.30;86.90;;;;;;6217378;23;20003;-82
2021/01/02 12:12:06;;;;;;;47.60;21.53;;;4.40;87.00;;;;;;6217716;23;20135;-83
2021/01/02 12:14:35;;;;;;;50.17;21.67;;;4.40;87.20;;;;;;6190909;23;20007;-83
2021/01/02 12:17:08;;;;;;;51.20;22.17;;;4.40;87.10;;;;;;6190086;23;20005;-82
2021/01/02 12:19:33;;;;;;;47.97;21.50;;;4.40;87.30;;;;;;6215442;23;20239;-82
2021/01/02 12:22:02;;;;;;;48.93;21.50;;;4.40;87.40;;;;;;6214058;23;20012;-82
2021/01/02 12:24:28;;;;;;;46.40;22.00;;;4.40;86.80;;;;;;6216541;23;20079;-83
2021/01/02 12:26:59;;;;;;;43.83;21.73;;;4.40;86.80;;;;;;6216103;23;20075;-82
2021/01/02 12:29:28;;;;;;;47.20;21.40;;;4.40;87.10;;;;;;6215841;23;20024;-83
2021/01/02 12:31:56;;;;;;;46.67;21.53;;;4.40;87.00;;;;;;6213504;23;20011;-83
2021/01/02 12:34:28;;;;;;;48.07;21.43;;;4.50;87.00;;;;;;6216255;23;20331;-83
2021/01/02 12:36:56;;;;;;;49.57;21.80;;;4.50;87.00;;;;;;6217003;23;20004;-83
2021/01/02 12:39:28;;;;;;;51.47;23.30;;;4.40;87.10;;;;;;6214628;23;20091;-83
2021/01/02 12:41:54;;;;;;;48.57;23.27;;;4.40;87.30;;;;;;6216192;23;20024;-82
2021/01/02 12:44:21;;;;;;;51.97;22.33;;;4.50;87.70;;;;;;6217036;23;20015;-83
2021/01/02 12:46:49;;;;;;;50.20;21.60;;;4.50;87.40;;;;;;6189254;23;20005;-82
2021/01/02 12:49:19;;;;;;;47.77;21.63;;;4.50;87.80;;;;;;6215692;23;19996;-83
2021/01/02 12:51:46;;;;;;;47.20;21.80;;;4.50;88.10;;;;;;6216139;23;20005;-82
2021/01/02 12:54:12;;;;;;;49.47;22.03;;;4.50;87.80;;;;;;6216683;23;20000;-82
2021/01/02 12:56:49;;;;;;;46.67;21.43;;;4.50;87.40;;;;;;6216622;23;20008;-83